sensor_id;sensor_type;location;lat;lon;timestamp;P1;P2;P0
50956;PMS5003;55361;50.876;20.634;2022-08-03T00:00:01;48;39;27
50956;PMS5003;55361;50.876;20.634;2022-08-03T00:07:04;47;39;27
50956;PMS5003;55361;50.876;20.634;2022-08-03T00:14:19;47;39;27
50956;PMS5003;55361;50.876;20.634;2022-08-03T00:21:17;47;39;27
50956;PMS5003;55361;50.876;20.634;2022-08-03T00:28:17;47;39;27
50956;PMS5003;55361;50.876;20.634;2022-08-03T00:35:17;49;40;27
50956;PMS5003;55361;50.876;20.634;2022-08-03T00:42:20;49;40;27
50956;PMS5003;55361;50.876;20.634;2022-08-03T00:49:20;49;40;27
50956;PMS5003;55361;50.876;20.634;2022-08-03T00:56:02;49;40;27
50956;PMS5003;55361;50.876;20.634;2022-08-03T01:14:52;43;35;25
50956;PMS5003;55361;50.876;20.634;2022-08-03T01:21:03;43;35;25
50956;PMS5003;55361;50.876;20.634;2022-08-03T01:35:32;42;36;24
50956;PMS5003;55361;50.876;20.634;2022-08-03T01:42:10;42;36;24
50956;PMS5003;55361;50.876;20.634;2022-08-03T01:49:23;42;36;24
50956;PMS5003;55361;50.876;20.634;2022-08-03T01:56:19;42;36;24
50956;PMS5003;55361;50.876;20.634;2022-08-03T02:00:10;42;36;24
50956;PMS5003;55361;50.876;20.634;2022-08-03T02:07:20;44;35;24
50956;PMS5003;55361;50.876;20.634;2022-08-03T02:14:05;44;35;24
50956;PMS5003;55361;50.876;20.634;2022-08-03T02:21:02;44;35;24
50956;PMS5003;55361;50.876;20.634;2022-08-03T02:28:51;44;35;24
50956;PMS5003;55361;50.876;20.634;2022-08-03T02:35:23;46;38;26
50956;PMS5003;55361;50.876;20.634;2022-08-03T02:42:08;46;38;26
50956;PMS5003;55361;50.876;20.634;2022-08-03T02:49:20;46;38;26
50956;PMS5003;55361;50.876;20.634;2022-08-03T02:56:10;46;38;26
50956;PMS5003;55361;50.876;20.634;2022-08-03T03:00:02;46;38;26
50956;PMS5003;55361;50.876;20.634;2022-08-03T03:07:03;43;36;25
50956;PMS5003;55361;50.876;20.634;2022-08-03T03:14:03;43;36;25
50956;PMS5003;55361;50.876;20.634;2022-08-03T03:21:22;43;36;25
50956;PMS5003;55361;50.876;20.634;2022-08-03T03:28:20;43;36;25
50956;PMS5003;55361;50.876;20.634;2022-08-03T03:35:19;40;34;25
50956;PMS5003;55361;50.876;20.634;2022-08-03T03:42:07;40;34;25
50956;PMS5003;55361;50.876;20.634;2022-08-03T03:49:06;40;34;25
50956;PMS5003;55361;50.876;20.634;2022-08-03T03:56:19;40;34;25
50956;PMS5003;55361;50.876;20.634;2022-08-03T04:00:07;40;34;25
50956;PMS5003;55361;50.876;20.634;2022-08-03T04:07:01;47;40;28
50956;PMS5003;55361;50.876;20.634;2022-08-03T04:14:40;47;40;28
50956;PMS5003;55361;50.876;20.634;2022-08-03T04:21:23;47;40;28
50956;PMS5003;55361;50.876;20.634;2022-08-03T04:28:22;47;40;28
50956;PMS5003;55361;50.876;20.634;2022-08-03T04:35:13;46;39;28
50956;PMS5003;55361;50.876;20.634;2022-08-03T04:42:33;46;39;28
50956;PMS5003;55361;50.876;20.634;2022-08-03T04:49:18;46;39;28
50956;PMS5003;55361;50.876;20.634;2022-08-03T04:56:19;46;39;28
50956;PMS5003;55361;50.876;20.634;2022-08-03T05:00:21;46;39;28
50956;PMS5003;55361;50.876;20.634;2022-08-03T05:07:05;48;41;28
50956;PMS5003;55361;50.876;20.634;2022-08-03T05:14:05;48;41;28
50956;PMS5003;55361;50.876;20.634;2022-08-03T05:21:08;48;41;28
50956;PMS5003;55361;50.876;20.634;2022-08-03T05:28:17;48;41;28
50956;PMS5003;55361;50.876;20.634;2022-08-03T05:35:13;35;31;22
50956;PMS5003;55361;50.876;20.634;2022-08-03T05:42:17;35;31;22
50956;PMS5003;55361;50.876;20.634;2022-08-03T05:49:21;35;31;22
50956;PMS5003;55361;50.876;20.634;2022-08-03T05:56:24;35;31;22
50956;PMS5003;55361;50.876;20.634;2022-08-03T06:00:08;35;31;22
50956;PMS5003;55361;50.876;20.634;2022-08-03T06:07:16;38;32;23
50956;PMS5003;55361;50.876;20.634;2022-08-03T06:14:03;38;32;23
50956;PMS5003;55361;50.876;20.634;2022-08-03T06:21:17;38;32;23
50956;PMS5003;55361;50.876;20.634;2022-08-03T06:28:16;38;32;23
50956;PMS5003;55361;50.876;20.634;2022-08-03T06:35:02;22;21;17
50956;PMS5003;55361;50.876;20.634;2022-08-03T06:42:16;22;21;17
50956;PMS5003;55361;50.876;20.634;2022-08-03T06:49:03;22;21;17
50956;PMS5003;55361;50.876;20.634;2022-08-03T06:56:22;22;21;17
50956;PMS5003;55361;50.876;20.634;2022-08-03T07:00:04;22;21;17
50956;PMS5003;55361;50.876;20.634;2022-08-03T07:07:14;19;18;15
50956;PMS5003;55361;50.876;20.634;2022-08-03T07:14:14;19;18;15
50956;PMS5003;55361;50.876;20.634;2022-08-03T07:21:20;19;18;15
50956;PMS5003;55361;50.876;20.634;2022-08-03T07:28:19;19;18;15
50956;PMS5003;55361;50.876;20.634;2022-08-03T07:42:06;20;20;15
50956;PMS5003;55361;50.876;20.634;2022-08-03T07:49:04;20;20;15
50956;PMS5003;55361;50.876;20.634;2022-08-03T07:56:02;20;20;15
50956;PMS5003;55361;50.876;20.634;2022-08-03T08:00:13;20;20;15
50956;PMS5003;55361;50.876;20.634;2022-08-03T08:14:16;20;18;14
50956;PMS5003;55361;50.876;20.634;2022-08-03T08:21:18;20;18;14
50956;PMS5003;55361;50.876;20.634;2022-08-03T08:28:05;20;18;14
50956;PMS5003;55361;50.876;20.634;2022-08-03T08:35:15;20;18;14
50956;PMS5003;55361;50.876;20.634;2022-08-03T08:42:03;23;22;19
50956;PMS5003;55361;50.876;20.634;2022-08-03T08:49:35;23;22;19
50956;PMS5003;55361;50.876;20.634;2022-08-03T08:56:04;23;22;19
50956;PMS5003;55361;50.876;20.634;2022-08-03T09:00:09;23;22;19
50956;PMS5003;55361;50.876;20.634;2022-08-03T09:14:21;20;20;17
50956;PMS5003;55361;50.876;20.634;2022-08-03T09:21:29;20;20;17
50956;PMS5003;55361;50.876;20.634;2022-08-03T09:28:10;20;20;17
50956;PMS5003;55361;50.876;20.634;2022-08-03T09:35:05;20;20;17
50956;PMS5003;55361;50.876;20.634;2022-08-03T09:42:09;17;16;13
50956;PMS5003;55361;50.876;20.634;2022-08-03T09:49:19;17;16;13
50956;PMS5003;55361;50.876;20.634;2022-08-03T09:56:04;17;16;13
50956;PMS5003;55361;50.876;20.634;2022-08-03T10:00:16;17;16;13
50956;PMS5003;55361;50.876;20.634;2022-08-03T10:14:05;19;18;14
50956;PMS5003;55361;50.876;20.634;2022-08-03T10:21:39;19;18;14
50956;PMS5003;55361;50.876;20.634;2022-08-03T10:28:33;19;18;14
50956;PMS5003;55361;50.876;20.634;2022-08-03T10:35:26;19;18;14
50956;PMS5003;55361;50.876;20.634;2022-08-03T10:42:18;23;22;16
50956;PMS5003;55361;50.876;20.634;2022-08-03T10:49:24;23;22;16
50956;PMS5003;55361;50.876;20.634;2022-08-03T11:00:01;23;22;16
50956;PMS5003;55361;50.876;20.634;2022-08-03T11:14:19;17;17;13
50956;PMS5003;55361;50.876;20.634;2022-08-03T11:21:02;17;17;13
50956;PMS5003;55361;50.876;20.634;2022-08-03T11:28:32;17;17;13
50956;PMS5003;55361;50.876;20.634;2022-08-03T11:35:09;17;17;13
50956;PMS5003;55361;50.876;20.634;2022-08-03T11:42:44;26;21;16
50956;PMS5003;55361;50.876;20.634;2022-08-03T11:49:22;26;21;16
50956;PMS5003;55361;50.876;20.634;2022-08-03T11:56:13;26;21;16
50956;PMS5003;55361;50.876;20.634;2022-08-03T12:00:32;26;21;16
50956;PMS5003;55361;50.876;20.634;2022-08-03T12:07:03;26;21;16
50956;PMS5003;55361;50.876;20.634;2022-08-03T12:14:17;20;20;16
50956;PMS5003;55361;50.876;20.634;2022-08-03T12:21:13;20;20;16
50956;PMS5003;55361;50.876;20.634;2022-08-03T12:28:36;20;20;16
50956;PMS5003;55361;50.876;20.634;2022-08-03T12:35:25;20;20;16
50956;PMS5003;55361;50.876;20.634;2022-08-03T12:42:05;18;18;14
50956;PMS5003;55361;50.876;20.634;2022-08-03T12:49:43;18;18;14
50956;PMS5003;55361;50.876;20.634;2022-08-03T12:56:17;18;18;14
50956;PMS5003;55361;50.876;20.634;2022-08-03T13:00:17;18;18;14
50956;PMS5003;55361;50.876;20.634;2022-08-03T13:07:06;18;18;14
50956;PMS5003;55361;50.876;20.634;2022-08-03T13:14:03;23;22;16
50956;PMS5003;55361;50.876;20.634;2022-08-03T13:21:19;23;22;16
50956;PMS5003;55361;50.876;20.634;2022-08-03T13:28:14;23;22;16
50956;PMS5003;55361;50.876;20.634;2022-08-03T13:35:18;23;22;16
50956;PMS5003;55361;50.876;20.634;2022-08-03T13:42:19;22;21;14
50956;PMS5003;55361;50.876;20.634;2022-08-03T13:49:05;22;21;14
50956;PMS5003;55361;50.876;20.634;2022-08-03T13:56:03;22;21;14
50956;PMS5003;55361;50.876;20.634;2022-08-03T14:00:25;22;21;14
50956;PMS5003;55361;50.876;20.634;2022-08-03T14:07:18;22;21;14
50956;PMS5003;55361;50.876;20.634;2022-08-03T14:14:17;20;19;16
50956;PMS5003;55361;50.876;20.634;2022-08-03T14:21:06;20;19;16
50956;PMS5003;55361;50.876;20.634;2022-08-03T14:28:03;20;19;16
50956;PMS5003;55361;50.876;20.634;2022-08-03T14:35:19;20;19;16
50956;PMS5003;55361;50.876;20.634;2022-08-03T14:42:05;20;20;16
50956;PMS5003;55361;50.876;20.634;2022-08-03T14:49:16;20;20;16
50956;PMS5003;55361;50.876;20.634;2022-08-03T14:56:04;20;20;16
50956;PMS5003;55361;50.876;20.634;2022-08-03T15:00:22;20;20;16
50956;PMS5003;55361;50.876;20.634;2022-08-03T15:07:06;20;20;16
50956;PMS5003;55361;50.876;20.634;2022-08-03T15:14:02;19;19;14
50956;PMS5003;55361;50.876;20.634;2022-08-03T15:21:16;19;19;14
50956;PMS5003;55361;50.876;20.634;2022-08-03T15:28:15;19;19;14
50956;PMS5003;55361;50.876;20.634;2022-08-03T15:35:04;19;19;14
50956;PMS5003;55361;50.876;20.634;2022-08-03T15:49:20;21;18;14
50956;PMS5003;55361;50.876;20.634;2022-08-03T15:56:11;21;18;14
50956;PMS5003;55361;50.876;20.634;2022-08-03T16:00:22;21;18;14
50956;PMS5003;55361;50.876;20.634;2022-08-03T16:07:03;21;18;14
50956;PMS5003;55361;50.876;20.634;2022-08-03T16:21:02;22;21;14
50956;PMS5003;55361;50.876;20.634;2022-08-03T16:28:07;22;21;14
50956;PMS5003;55361;50.876;20.634;2022-08-03T16:35:03;22;21;14
50956;PMS5003;55361;50.876;20.634;2022-08-03T16:49:20;21;21;16
50956;PMS5003;55361;50.876;20.634;2022-08-03T16:56:17;21;21;16
50956;PMS5003;55361;50.876;20.634;2022-08-03T17:00:23;21;21;16
50956;PMS5003;55361;50.876;20.634;2022-08-03T17:07:22;21;21;16
50956;PMS5003;55361;50.876;20.634;2022-08-03T17:21:33;24;24;16
50956;PMS5003;55361;50.876;20.634;2022-08-03T17:28:17;24;24;16
50956;PMS5003;55361;50.876;20.634;2022-08-03T17:35:12;24;24;16
50956;PMS5003;55361;50.876;20.634;2022-08-03T17:49:02;17;17;14
50956;PMS5003;55361;50.876;20.634;2022-08-03T18:07:24;17;17;14
50956;PMS5003;55361;50.876;20.634;2022-08-03T18:21:06;20;20;16
50956;PMS5003;55361;50.876;20.634;2022-08-03T18:28:10;20;20;16
50956;PMS5003;55361;50.876;20.634;2022-08-03T18:49:21;31;30;20
50956;PMS5003;55361;50.876;20.634;2022-08-03T18:56:47;31;30;20
50956;PMS5003;55361;50.876;20.634;2022-08-03T19:00:16;31;30;20
50956;PMS5003;55361;50.876;20.634;2022-08-03T19:07:17;31;30;20
50956;PMS5003;55361;50.876;20.634;2022-08-03T19:21:10;35;31;22
50956;PMS5003;55361;50.876;20.634;2022-08-03T19:28:28;35;31;22
50956;PMS5003;55361;50.876;20.634;2022-08-03T19:35:19;35;31;22
50956;PMS5003;55361;50.876;20.634;2022-08-03T19:49:26;35;30;20
50956;PMS5003;55361;50.876;20.634;2022-08-03T19:56:02;35;30;20
50956;PMS5003;55361;50.876;20.634;2022-08-03T20:00:21;35;30;20
50956;PMS5003;55361;50.876;20.634;2022-08-03T20:07:05;35;30;20
50956;PMS5003;55361;50.876;20.634;2022-08-03T20:21:23;34;31;21
50956;PMS5003;55361;50.876;20.634;2022-08-03T20:28:08;34;31;21
50956;PMS5003;55361;50.876;20.634;2022-08-03T20:35:08;34;31;21
50956;PMS5003;55361;50.876;20.634;2022-08-03T20:42:06;34;31;21
50956;PMS5003;55361;50.876;20.634;2022-08-03T20:49:28;27;25;20
50956;PMS5003;55361;50.876;20.634;2022-08-03T20:56:24;27;25;20
50956;PMS5003;55361;50.876;20.634;2022-08-03T21:00:25;27;25;20
50956;PMS5003;55361;50.876;20.634;2022-08-03T21:07:02;27;25;20
50956;PMS5003;55361;50.876;20.634;2022-08-03T21:21:25;28;25;20
50956;PMS5003;55361;50.876;20.634;2022-08-03T21:28:26;28;25;20
50956;PMS5003;55361;50.876;20.634;2022-08-03T21:35:27;28;25;20
50956;PMS5003;55361;50.876;20.634;2022-08-03T21:42:17;28;25;20
50956;PMS5003;55361;50.876;20.634;2022-08-03T21:49:03;24;20;16
50956;PMS5003;55361;50.876;20.634;2022-08-03T21:56:11;24;20;16
50956;PMS5003;55361;50.876;20.634;2022-08-03T22:00:22;24;20;16
50956;PMS5003;55361;50.876;20.634;2022-08-03T22:07:03;24;20;16
50956;PMS5003;55361;50.876;20.634;2022-08-03T22:14:05;24;21;16
50956;PMS5003;55361;50.876;20.634;2022-08-03T22:21:17;24;21;16
50956;PMS5003;55361;50.876;20.634;2022-08-03T22:28:35;24;21;16
50956;PMS5003;55361;50.876;20.634;2022-08-03T22:35:09;24;22;14
50956;PMS5003;55361;50.876;20.634;2022-08-03T22:42:22;24;22;14
50956;PMS5003;55361;50.876;20.634;2022-08-03T22:49:23;24;22;14
50956;PMS5003;55361;50.876;20.634;2022-08-03T22:56:14;24;22;14
50956;PMS5003;55361;50.876;20.634;2022-08-03T23:07:43;20;19;12
50956;PMS5003;55361;50.876;20.634;2022-08-03T23:14:02;20;19;12
50956;PMS5003;55361;50.876;20.634;2022-08-03T23:21:20;20;19;12
50956;PMS5003;55361;50.876;20.634;2022-08-03T23:28:02;20;19;12
50956;PMS5003;55361;50.876;20.634;2022-08-03T23:42:17;24;21;15
50956;PMS5003;55361;50.876;20.634;2022-08-03T23:49:06;24;21;15
